sensor_id;sensor_type;location;lat;lon;timestamp;P1;durP1;ratioP1;P2;durP2;ratioP2
37067;SDS011;22982;42.848;25.468;2023-06-14T02:09:09;10.53;;;8.80;;
37067;SDS011;22982;42.848;25.468;2023-06-14T02:14:13;10.43;;;8.38;;
37067;SDS011;22982;42.848;25.468;2023-06-14T02:19:16;11.00;;;8.68;;
37067;SDS011;22982;42.848;25.468;2023-06-14T02:24:20;9.55;;;8.40;;
37067;SDS011;22982;42.848;25.468;2023-06-14T02:29:23;10.52;;;9.32;;
37067;SDS011;22982;42.848;25.468;2023-06-14T02:34:26;11.20;;;9.02;;
37067;SDS011;22982;42.848;25.468;2023-06-14T02:39:29;12.95;;;8.95;;
37067;SDS011;22982;42.848;25.468;2023-06-14T02:44:32;12.02;;;9.00;;
37067;SDS011;22982;42.848;25.468;2023-06-14T02:49:34;12.13;;;9.25;;
37067;SDS011;22982;42.848;25.468;2023-06-14T02:54:37;14.82;;;9.25;;
37067;SDS011;22982;42.848;25.468;2023-06-14T02:59:40;13.88;;;11.07;;
37067;SDS011;22982;42.848;25.468;2023-06-14T03:04:43;15.75;;;11.43;;
37067;SDS011;22982;42.848;25.468;2023-06-14T03:09:49;15.40;;;10.88;;
37067;SDS011;22982;42.848;25.468;2023-06-14T03:14:52;19.60;;;12.18;;
37067;SDS011;22982;42.848;25.468;2023-06-14T03:20:01;15.60;;;11.40;;
37067;SDS011;22982;42.848;25.468;2023-06-14T03:25:04;14.90;;;10.52;;
37067;SDS011;22982;42.848;25.468;2023-06-14T03:30:11;18.98;;;13.95;;
37067;SDS011;22982;42.848;25.468;2023-06-14T03:35:16;18.73;;;14.20;;
37067;SDS011;22982;42.848;25.468;2023-06-14T03:45:56;14.90;;;11.90;;
37067;SDS011;22982;42.848;25.468;2023-06-14T03:51:00;15.20;;;12.60;;
37067;SDS011;22982;42.848;25.468;2023-06-14T03:56:04;14.98;;;11.85;;
37067;SDS011;22982;42.848;25.468;2023-06-14T04:01:15;15.45;;;11.98;;
37067;SDS011;22982;42.848;25.468;2023-06-14T04:13:14;14.43;;;9.90;;
37067;SDS011;22982;42.848;25.468;2023-06-14T04:18:18;16.25;;;9.95;;
37067;SDS011;22982;42.848;25.468;2023-06-14T04:23:25;13.93;;;10.23;;
37067;SDS011;22982;42.848;25.468;2023-06-14T04:28:30;11.45;;;9.93;;
37067;SDS011;22982;42.848;25.468;2023-06-14T04:33:36;12.18;;;10.02;;
37067;SDS011;22982;42.848;25.468;2023-06-14T04:38:50;11.25;;;9.68;;
37067;SDS011;22982;42.848;25.468;2023-06-14T04:44:02;11.95;;;9.93;;
37067;SDS011;22982;42.848;25.468;2023-06-14T04:49:14;12.02;;;10.18;;
37067;SDS011;22982;42.848;25.468;2023-06-14T04:54:17;13.18;;;10.68;;
37067;SDS011;22982;42.848;25.468;2023-06-14T04:59:22;16.38;;;10.07;;
37067;SDS011;22982;42.848;25.468;2023-06-14T05:04:27;12.73;;;10.70;;
37067;SDS011;22982;42.848;25.468;2023-06-14T05:09:32;12.00;;;10.45;;
37067;SDS011;22982;42.848;25.468;2023-06-14T05:14:35;12.38;;;9.68;;
37067;SDS011;22982;42.848;25.468;2023-06-14T05:19:40;14.23;;;11.20;;
37067;SDS011;22982;42.848;25.468;2023-06-14T05:24:42;12.98;;;10.82;;
37067;SDS011;22982;42.848;25.468;2023-06-14T05:29:45;15.32;;;11.38;;
37067;SDS011;22982;42.848;25.468;2023-06-14T05:34:47;15.23;;;11.32;;
37067;SDS011;22982;42.848;25.468;2023-06-14T05:39:50;14.02;;;10.20;;
37067;SDS011;22982;42.848;25.468;2023-06-14T05:44:53;13.68;;;12.25;;
37067;SDS011;22982;42.848;25.468;2023-06-14T05:49:55;12.48;;;11.00;;
37067;SDS011;22982;42.848;25.468;2023-06-14T05:54:58;15.38;;;11.93;;
37067;SDS011;22982;42.848;25.468;2023-06-14T06:00:00;15.15;;;11.65;;
37067;SDS011;22982;42.848;25.468;2023-06-14T06:05:12;12.85;;;11.50;;
37067;SDS011;22982;42.848;25.468;2023-06-14T06:10:18;15.40;;;11.52;;
37067;SDS011;22982;42.848;25.468;2023-06-14T06:15:21;14.40;;;11.93;;
37067;SDS011;22982;42.848;25.468;2023-06-14T06:20:24;17.25;;;11.15;;
37067;SDS011;22982;42.848;25.468;2023-06-14T06:25:31;15.50;;;10.80;;
37067;SDS011;22982;42.848;25.468;2023-06-14T06:30:34;13.48;;;11.40;;
37067;SDS011;22982;42.848;25.468;2023-06-14T06:35:37;15.00;;;11.00;;
37067;SDS011;22982;42.848;25.468;2023-06-14T06:40:40;12.50;;;10.80;;
37067;SDS011;22982;42.848;25.468;2023-06-14T06:45:43;15.13;;;11.70;;
37067;SDS011;22982;42.848;25.468;2023-06-14T06:50:45;17.52;;;11.30;;
37067;SDS011;22982;42.848;25.468;2023-06-14T06:55:48;16.40;;;11.75;;
37067;SDS011;22982;42.848;25.468;2023-06-14T07:00:50;13.93;;;11.57;;
37067;SDS011;22982;42.848;25.468;2023-06-14T07:05:52;14.52;;;11.63;;
37067;SDS011;22982;42.848;25.468;2023-06-14T07:10:55;15.80;;;11.68;;
37067;SDS011;22982;42.848;25.468;2023-06-14T07:15:58;13.10;;;11.40;;
37067;SDS011;22982;42.848;25.468;2023-06-14T07:21:03;16.58;;;11.40;;
37067;SDS011;22982;42.848;25.468;2023-06-14T07:26:06;14.98;;;12.02;;
37067;SDS011;22982;42.848;25.468;2023-06-14T07:31:08;14.60;;;10.18;;
37067;SDS011;22982;42.848;25.468;2023-06-14T07:36:11;12.88;;;10.48;;
37067;SDS011;22982;42.848;25.468;2023-06-14T07:41:13;15.68;;;10.77;;
37067;SDS011;22982;42.848;25.468;2023-06-14T07:46:17;12.00;;;9.55;;
37067;SDS011;22982;42.848;25.468;2023-06-14T07:51:19;10.70;;;9.60;;
37067;SDS011;22982;42.848;25.468;2023-06-14T07:56:23;9.82;;;8.82;;
37067;SDS011;22982;42.848;25.468;2023-06-14T08:01:26;11.88;;;8.43;;
37067;SDS011;22982;42.848;25.468;2023-06-14T08:06:30;9.43;;;7.95;;
37067;SDS011;22982;42.848;25.468;2023-06-14T08:11:33;10.63;;;8.18;;
37067;SDS011;22982;42.848;25.468;2023-06-14T08:16:38;9.80;;;7.70;;
37067;SDS011;22982;42.848;25.468;2023-06-14T08:21:41;8.38;;;7.50;;
37067;SDS011;22982;42.848;25.468;2023-06-14T08:26:45;8.15;;;6.50;;
37067;SDS011;22982;42.848;25.468;2023-06-14T08:31:48;7.28;;;6.57;;
37067;SDS011;22982;42.848;25.468;2023-06-14T08:36:51;7.47;;;6.00;;
37067;SDS011;22982;42.848;25.468;2023-06-14T08:41:54;7.60;;;5.85;;
37067;SDS011;22982;42.848;25.468;2023-06-14T08:46:59;8.35;;;5.95;;
37067;SDS011;22982;42.848;25.468;2023-06-14T08:52:03;7.28;;;5.47;;
37067;SDS011;22982;42.848;25.468;2023-06-14T08:57:11;9.30;;;6.18;;
37067;SDS011;22982;42.848;25.468;2023-06-14T09:02:19;6.13;;;5.53;;
37067;SDS011;22982;42.848;25.468;2023-06-14T09:07:24;5.68;;;4.75;;
37067;SDS011;22982;42.848;25.468;2023-06-14T09:12:28;6.40;;;4.78;;
37067;SDS011;22982;42.848;25.468;2023-06-14T09:17:34;8.10;;;5.10;;
37067;SDS011;22982;42.848;25.468;2023-06-14T09:22:39;5.68;;;4.50;;
37067;SDS011;22982;42.848;25.468;2023-06-14T09:27:41;7.05;;;5.85;;
37067;SDS011;22982;42.848;25.468;2023-06-14T09:32:43;6.47;;;5.47;;
37067;SDS011;22982;42.848;25.468;2023-06-14T09:37:47;6.28;;;5.40;;
37067;SDS011;22982;42.848;25.468;2023-06-14T09:42:49;6.57;;;5.40;;
37067;SDS011;22982;42.848;25.468;2023-06-14T09:47:54;5.80;;;5.20;;
37067;SDS011;22982;42.848;25.468;2023-06-14T09:53:09;5.30;;;4.90;;
37067;SDS011;22982;42.848;25.468;2023-06-14T09:58:14;6.60;;;4.47;;
37067;SDS011;22982;42.848;25.468;2023-06-14T10:03:24;6.95;;;5.18;;
37067;SDS011;22982;42.848;25.468;2023-06-14T10:08:41;6.38;;;5.72;;
37067;SDS011;22982;42.848;25.468;2023-06-14T10:13:46;14.02;;;5.55;;
37067;SDS011;22982;42.848;25.468;2023-06-14T10:18:57;6.88;;;5.60;;
37067;SDS011;22982;42.848;25.468;2023-06-14T10:24:26;6.97;;;4.70;;
37067;SDS011;22982;42.848;25.468;2023-06-14T10:29:34;6.07;;;5.18;;
37067;SDS011;22982;42.848;25.468;2023-06-14T10:34:38;6.78;;;5.03;;
37067;SDS011;22982;42.848;25.468;2023-06-14T10:39:42;8.30;;;5.50;;
37067;SDS011;22982;42.848;25.468;2023-06-14T10:44:51;6.53;;;5.55;;
37067;SDS011;22982;42.848;25.468;2023-06-14T10:49:55;8.10;;;5.60;;
37067;SDS011;22982;42.848;25.468;2023-06-14T10:55:11;7.47;;;6.72;;
37067;SDS011;22982;42.848;25.468;2023-06-14T11:00:20;8.73;;;7.57;;
37067;SDS011;22982;42.848;25.468;2023-06-14T11:05:28;12.32;;;7.13;;
37067;SDS011;22982;42.848;25.468;2023-06-14T11:15:35;9.80;;;8.30;;
37067;SDS011;22982;42.848;25.468;2023-06-14T11:20:39;9.50;;;8.50;;
37067;SDS011;22982;42.848;25.468;2023-06-14T11:25:42;9.45;;;8.38;;
37067;SDS011;22982;42.848;25.468;2023-06-14T11:30:44;10.77;;;8.50;;
37067;SDS011;22982;42.848;25.468;2023-06-14T11:35:48;8.05;;;7.25;;
37067;SDS011;22982;42.848;25.468;2023-06-14T11:40:51;8.77;;;7.88;;
37067;SDS011;22982;42.848;25.468;2023-06-14T11:45:53;8.93;;;8.02;;
37067;SDS011;22982;42.848;25.468;2023-06-14T11:51:09;9.48;;;8.45;;
37067;SDS011;22982;42.848;25.468;2023-06-14T11:56:13;12.70;;;8.85;;
37067;SDS011;22982;42.848;25.468;2023-06-14T12:01:18;8.27;;;7.50;;
37067;SDS011;22982;42.848;25.468;2023-06-14T12:06:28;11.60;;;7.82;;
37067;SDS011;22982;42.848;25.468;2023-06-14T12:11:35;9.98;;;8.18;;
37067;SDS011;22982;42.848;25.468;2023-06-14T12:16:38;8.50;;;7.53;;
37067;SDS011;22982;42.848;25.468;2023-06-14T12:21:47;8.57;;;7.68;;
37067;SDS011;22982;42.848;25.468;2023-06-14T12:26:54;8.50;;;7.68;;
37067;SDS011;22982;42.848;25.468;2023-06-14T12:31:57;8.90;;;6.30;;
37067;SDS011;22982;42.848;25.468;2023-06-14T12:36:59;8.00;;;6.68;;
37067;SDS011;22982;42.848;25.468;2023-06-14T12:42:03;7.70;;;6.68;;
37067;SDS011;22982;42.848;25.468;2023-06-14T12:47:06;10.38;;;5.97;;
37067;SDS011;22982;42.848;25.468;2023-06-14T12:52:10;12.48;;;6.40;;
37067;SDS011;22982;42.848;25.468;2023-06-14T12:57:12;9.55;;;6.70;;
37067;SDS011;22982;42.848;25.468;2023-06-14T13:02:16;10.05;;;7.03;;
37067;SDS011;22982;42.848;25.468;2023-06-14T13:07:20;7.20;;;5.88;;
37067;SDS011;22982;42.848;25.468;2023-06-14T13:12:23;7.25;;;6.50;;
37067;SDS011;22982;42.848;25.468;2023-06-14T13:17:25;9.00;;;6.82;;
37067;SDS011;22982;42.848;25.468;2023-06-14T13:22:28;7.82;;;6.78;;
37067;SDS011;22982;42.848;25.468;2023-06-14T13:27:31;7.75;;;6.40;;
37067;SDS011;22982;42.848;25.468;2023-06-14T13:32:34;7.15;;;6.45;;
37067;SDS011;22982;42.848;25.468;2023-06-14T13:37:37;7.07;;;6.38;;
37067;SDS011;22982;42.848;25.468;2023-06-14T13:42:39;10.27;;;6.65;;
37067;SDS011;22982;42.848;25.468;2023-06-14T13:47:42;7.63;;;6.50;;
37067;SDS011;22982;42.848;25.468;2023-06-14T13:52:45;8.57;;;6.95;;
37067;SDS011;22982;42.848;25.468;2023-06-14T13:57:47;10.48;;;6.95;;
37067;SDS011;22982;42.848;25.468;2023-06-14T14:02:50;10.35;;;6.72;;
37067;SDS011;22982;42.848;25.468;2023-06-14T14:07:52;9.13;;;6.55;;
37067;SDS011;22982;42.848;25.468;2023-06-14T14:12:56;8.85;;;6.32;;
37067;SDS011;22982;42.848;25.468;2023-06-14T14:17:59;7.20;;;5.90;;
37067;SDS011;22982;42.848;25.468;2023-06-14T14:23:02;6.63;;;5.82;;
37067;SDS011;22982;42.848;25.468;2023-06-14T14:28:05;8.07;;;6.38;;
37067;SDS011;22982;42.848;25.468;2023-06-14T14:33:08;6.60;;;5.32;;
37067;SDS011;22982;42.848;25.468;2023-06-14T14:38:10;8.57;;;5.88;;
37067;SDS011;22982;42.848;25.468;2023-06-14T14:43:13;11.70;;;6.18;;
37067;SDS011;22982;42.848;25.468;2023-06-14T14:48:16;5.93;;;5.40;;
37067;SDS011;22982;42.848;25.468;2023-06-14T14:53:18;6.55;;;5.93;;
37067;SDS011;22982;42.848;25.468;2023-06-14T14:58:21;6.47;;;5.80;;
37067;SDS011;22982;42.848;25.468;2023-06-14T15:03:24;6.43;;;5.63;;
37067;SDS011;22982;42.848;25.468;2023-06-14T15:08:27;12.90;;;7.07;;
37067;SDS011;22982;42.848;25.468;2023-06-14T15:13:29;7.43;;;6.13;;
37067;SDS011;22982;42.848;25.468;2023-06-14T15:18:32;7.15;;;5.85;;
37067;SDS011;22982;42.848;25.468;2023-06-14T15:23:34;8.90;;;6.05;;
37067;SDS011;22982;42.848;25.468;2023-06-14T15:28:38;6.75;;;6.10;;
37067;SDS011;22982;42.848;25.468;2023-06-14T15:33:40;7.90;;;5.95;;
37067;SDS011;22982;42.848;25.468;2023-06-14T15:38:43;10.27;;;6.07;;
37067;SDS011;22982;42.848;25.468;2023-06-14T15:43:45;6.93;;;6.30;;
37067;SDS011;22982;42.848;25.468;2023-06-14T15:48:48;9.32;;;6.55;;
37067;SDS011;22982;42.848;25.468;2023-06-14T15:53:51;9.55;;;6.40;;
37067;SDS011;22982;42.848;25.468;2023-06-14T15:58:54;6.35;;;5.53;;
37067;SDS011;22982;42.848;25.468;2023-06-14T16:03:57;6.93;;;5.93;;
37067;SDS011;22982;42.848;25.468;2023-06-14T16:09:00;7.10;;;5.70;;
37067;SDS011;22982;42.848;25.468;2023-06-14T16:14:04;8.88;;;6.40;;
37067;SDS011;22982;42.848;25.468;2023-06-14T16:19:08;7.13;;;6.50;;
37067;SDS011;22982;42.848;25.468;2023-06-14T16:24:10;7.40;;;6.15;;
37067;SDS011;22982;42.848;25.468;2023-06-14T16:29:13;9.30;;;6.95;;
37067;SDS011;22982;42.848;25.468;2023-06-14T16:34:16;8.60;;;7.05;;
37067;SDS011;22982;42.848;25.468;2023-06-14T16:39:19;7.03;;;6.32;;
37067;SDS011;22982;42.848;25.468;2023-06-14T16:44:21;8.95;;;7.30;;
37067;SDS011;22982;42.848;25.468;2023-06-14T16:49:24;10.65;;;6.80;;
37067;SDS011;22982;42.848;25.468;2023-06-14T16:54:26;9.40;;;7.00;;
37067;SDS011;22982;42.848;25.468;2023-06-14T16:59:29;9.52;;;7.03;;
37067;SDS011;22982;42.848;25.468;2023-06-14T17:04:32;13.27;;;8.13;;
37067;SDS011;22982;42.848;25.468;2023-06-14T17:09:34;9.27;;;7.05;;
37067;SDS011;22982;42.848;25.468;2023-06-14T17:14:37;8.63;;;7.13;;
37067;SDS011;22982;42.848;25.468;2023-06-14T17:19:39;7.93;;;6.95;;
37067;SDS011;22982;42.848;25.468;2023-06-14T17:24:42;24.02;;;13.05;;
37067;SDS011;22982;42.848;25.468;2023-06-14T17:29:45;9.52;;;7.30;;
37067;SDS011;22982;42.848;25.468;2023-06-14T17:34:47;13.85;;;9.43;;
37067;SDS011;22982;42.848;25.468;2023-06-14T17:39:50;10.73;;;8.68;;
37067;SDS011;22982;42.848;25.468;2023-06-14T17:44:53;14.25;;;10.15;;
37067;SDS011;22982;42.848;25.468;2023-06-14T17:49:57;10.20;;;8.63;;
37067;SDS011;22982;42.848;25.468;2023-06-14T17:55:02;12.05;;;7.97;;
37067;SDS011;22982;42.848;25.468;2023-06-14T18:00:05;10.25;;;8.57;;
37067;SDS011;22982;42.848;25.468;2023-06-14T18:05:14;12.27;;;8.98;;
37067;SDS011;22982;42.848;25.468;2023-06-14T18:10:17;11.77;;;8.48;;
37067;SDS011;22982;42.848;25.468;2023-06-14T18:15:20;11.82;;;9.55;;
37067;SDS011;22982;42.848;25.468;2023-06-14T18:20:23;14.35;;;9.65;;
37067;SDS011;22982;42.848;25.468;2023-06-14T18:25:26;10.10;;;7.75;;
37067;SDS011;22982;42.848;25.468;2023-06-14T18:30:28;9.38;;;8.45;;
37067;SDS011;22982;42.848;25.468;2023-06-14T18:35:31;9.75;;;7.47;;
37067;SDS011;22982;42.848;25.468;2023-06-14T18:40:34;10.65;;;7.88;;
37067;SDS011;22982;42.848;25.468;2023-06-14T18:45:39;11.30;;;8.70;;
37067;SDS011;22982;42.848;25.468;2023-06-14T18:50:41;14.57;;;8.95;;
37067;SDS011;22982;42.848;25.468;2023-06-14T18:55:44;11.60;;;8.25;;
37067;SDS011;22982;42.848;25.468;2023-06-14T19:00:49;13.77;;;8.23;;
37067;SDS011;22982;42.848;25.468;2023-06-14T19:05:52;12.13;;;8.38;;
37067;SDS011;22982;42.848;25.468;2023-06-14T19:10:57;10.10;;;7.68;;
37067;SDS011;22982;42.848;25.468;2023-06-14T19:16:00;10.60;;;8.50;;
37067;SDS011;22982;42.848;25.468;2023-06-14T19:21:03;10.98;;;8.38;;
37067;SDS011;22982;42.848;25.468;2023-06-14T19:26:05;12.80;;;8.57;;
37067;SDS011;22982;42.848;25.468;2023-06-14T19:31:08;12.90;;;10.15;;
37067;SDS011;22982;42.848;25.468;2023-06-14T19:36:13;10.00;;;9.00;;
37067;SDS011;22982;42.848;25.468;2023-06-14T19:41:18;12.32;;;8.40;;
37067;SDS011;22982;42.848;25.468;2023-06-14T19:46:22;14.52;;;8.75;;
37067;SDS011;22982;42.848;25.468;2023-06-14T19:51:27;10.73;;;8.52;;
37067;SDS011;22982;42.848;25.468;2023-06-14T19:56:35;11.00;;;8.45;;
37067;SDS011;22982;42.848;25.468;2023-06-14T20:01:37;13.50;;;9.60;;
37067;SDS011;22982;42.848;25.468;2023-06-14T20:06:40;13.45;;;10.18;;
37067;SDS011;22982;42.848;25.468;2023-06-14T20:11:42;17.08;;;8.93;;
37067;SDS011;22982;42.848;25.468;2023-06-14T20:16:47;13.00;;;9.07;;
37067;SDS011;22982;42.848;25.468;2023-06-14T20:21:51;9.82;;;8.52;;
37067;SDS011;22982;42.848;25.468;2023-06-14T20:26:53;9.25;;;8.02;;
37067;SDS011;22982;42.848;25.468;2023-06-14T20:31:55;12.27;;;8.27;;
37067;SDS011;22982;42.848;25.468;2023-06-14T20:36:58;13.23;;;9.45;;
37067;SDS011;22982;42.848;25.468;2023-06-14T20:42:00;11.75;;;9.85;;
37067;SDS011;22982;42.848;25.468;2023-06-14T20:47:20;13.57;;;9.95;;
37067;SDS011;22982;42.848;25.468;2023-06-14T20:52:26;11.45;;;9.30;;
37067;SDS011;22982;42.848;25.468;2023-06-14T20:57:29;21.33;;;10.25;;
37067;SDS011;22982;42.848;25.468;2023-06-14T21:02:33;17.08;;;9.02;;
37067;SDS011;22982;42.848;25.468;2023-06-14T21:07:35;14.60;;;8.80;;
37067;SDS011;22982;42.848;25.468;2023-06-14T21:12:38;10.40;;;9.30;;
37067;SDS011;22982;42.848;25.468;2023-06-14T21:17:41;11.82;;;10.20;;
37067;SDS011;22982;42.848;25.468;2023-06-14T21:22:43;14.35;;;9.82;;
37067;SDS011;22982;42.848;25.468;2023-06-14T21:27:46;16.13;;;10.10;;
37067;SDS011;22982;42.848;25.468;2023-06-14T21:32:48;13.82;;;9.80;;
37067;SDS011;22982;42.848;25.468;2023-06-14T21:37:52;13.38;;;9.75;;
37067;SDS011;22982;42.848;25.468;2023-06-14T21:42:54;18.90;;;10.27;;
37067;SDS011;22982;42.848;25.468;2023-06-14T21:47:57;12.52;;;9.20;;
37067;SDS011;22982;42.848;25.468;2023-06-14T21:53:00;13.02;;;9.07;;
37067;SDS011;22982;42.848;25.468;2023-06-14T21:58:02;16.33;;;9.23;;
37067;SDS011;22982;42.848;25.468;2023-06-14T22:03:08;11.05;;;8.77;;
37067;SDS011;22982;42.848;25.468;2023-06-14T22:08:11;10.02;;;7.97;;
37067;SDS011;22982;42.848;25.468;2023-06-14T22:13:15;12.32;;;9.50;;
37067;SDS011;22982;42.848;25.468;2023-06-14T22:18:19;13.68;;;8.95;;
37067;SDS011;22982;42.848;25.468;2023-06-14T22:23:23;10.38;;;8.43;;
37067;SDS011;22982;42.848;25.468;2023-06-14T22:28:27;10.23;;;8.05;;
37067;SDS011;22982;42.848;25.468;2023-06-14T22:33:40;10.07;;;8.77;;
37067;SDS011;22982;42.848;25.468;2023-06-14T22:38:47;16.85;;;8.82;;
37067;SDS011;22982;42.848;25.468;2023-06-14T22:43:49;15.80;;;9.15;;
37067;SDS011;22982;42.848;25.468;2023-06-14T22:48:54;13.27;;;9.68;;
37067;SDS011;22982;42.848;25.468;2023-06-14T22:53:56;13.90;;;8.40;;
37067;SDS011;22982;42.848;25.468;2023-06-14T22:58:59;10.57;;;7.85;;
37067;SDS011;22982;42.848;25.468;2023-06-14T23:04:04;9.73;;;8.68;;
37067;SDS011;22982;42.848;25.468;2023-06-14T23:09:07;13.13;;;8.43;;
37067;SDS011;22982;42.848;25.468;2023-06-14T23:14:10;12.43;;;8.05;;
37067;SDS011;22982;42.848;25.468;2023-06-14T23:19:12;11.82;;;8.02;;
37067;SDS011;22982;42.848;25.468;2023-06-14T23:24:16;9.93;;;7.80;;
37067;SDS011;22982;42.848;25.468;2023-06-14T23:29:21;13.80;;;7.70;;
37067;SDS011;22982;42.848;25.468;2023-06-14T23:34:25;12.98;;;7.93;;
37067;SDS011;22982;42.848;25.468;2023-06-14T23:39:30;9.15;;;6.88;;
37067;SDS011;22982;42.848;25.468;2023-06-14T23:44:35;11.45;;;7.10;;
37067;SDS011;22982;42.848;25.468;2023-06-14T23:49:38;10.70;;;7.45;;
37067;SDS011;22982;42.848;25.468;2023-06-14T23:54:40;8.80;;;6.80;;
37067;SDS011;22982;42.848;25.468;2023-06-14T23:59:47;10.02;;;8.13;;
